Cuba, AL

7:48 AM CST on February 01, 2015 (GMT -0600)
RAWS LAUDERDALE MS US | Change Station
CLOSE
Current Station
Personal Weather Station
Location: Toomsuba, MS
Elevation: 221 ft
Nearby Weather Stations

Elev 221 ft 32.37 °N, 88.46 °W | Updated 35 minutes ago

Rain
Rain
43 °F
Feels Like 43 °F
N
1
Wind Variable Wind from North
Gusts 4.0 mph

Today
High -- | Low -- °F
--% Chance of Precip.
Yesterday
High -- | Low -- °F
Precip. -- in
6:47 AM 5:26 PM
Waxing Gibbous, 95% visible
Pressure 30.13 in
Visibility 6.0 miles
Clouds Few 3800 ft
Scattered Clouds 6500 ft
Overcast 8500 ft
Windchill 43 °F
Dew Point 42 °F
Humidity 97%
Rainfall 0.00 in
Snow Depth Not available.
UV 0 out of 12
Pollen 5.10 out of 12
Air Quality Not available.
Flu Activity Not available.
METAR KNMM 011256Z AUTO 00000KT 6SM -RA BR FEW038 SCT065 OVC085 06/05 A3009 RMK AO2 SLP202 P0005 T00610050 $

More Conditions Fewer Conditions

Pressure 30.13 in
Visibility 6.0 miles
Clouds Few 3800 ft
Scattered Clouds 6500 ft
Overcast 8500 ft
Windchill 43 °F
Dew Point 42 °F
Humidity 97%
Rainfall 0.00 in
Snow Depth Not available.
UV 0 out of 12
Pollen 5.10 out of 12
Air Quality Not available.
Flu Activity Not available.
METAR KNMM 011256Z AUTO 00000KT 6SM -RA BR FEW038 SCT065 OVC085 06/05 A3009 RMK AO2 SLP202 P0005 T00610050 $

More Conditions Fewer Conditions

10-Day Weather Forecast

Almanac

Astronomy

Feb. 01, 2015 Rise Set
Actual Time
Civil Twilight
Nautical Twilight
Astronomical Twilight
Moon
Length of Visible Light
Length of Day
Tomorrow will be .
, % of the Moon is Illuminated

Today's Extremes

State Highs State Lows

Community

WunderPhotos

Upload Photos

1,792,363 photos uploaded!

WunderBlogs® & News

Nearby

Air Quality

  Air Quality AQ Index Pollutant
Not available.

Snow Depth

Station Depth Elevation

Earthquake Activity

City Distance Mag. Time & Date
Minimum magnitude displayed is 2.5.

Coastal Water Temperatures

Place Temperature

Nearby Weather Stations